sensor_id;sensor_type;location;lat;lon;timestamp;pressure;altitude;pressure_sealevel;temperature;humidity
45939;BME280;31650;48.818;9.116;2023-04-29T00:07:12;97639.13;;;12.25;100.00
45939;BME280;31650;48.818;9.116;2023-04-29T00:22:14;97638.41;;;11.94;100.00
45939;BME280;31650;48.818;9.116;2023-04-29T00:37:15;97635.19;;;11.62;100.00
45939;BME280;31650;48.818;9.116;2023-04-29T00:52:15;97642.19;;;11.70;100.00
45939;BME280;31650;48.818;9.116;2023-04-29T01:22:37;97658.16;;;11.78;100.00
45939;BME280;31650;48.818;9.116;2023-04-29T01:38:40;97650.94;;;11.72;100.00
45939;BME280;31650;48.818;9.116;2023-04-29T01:53:08;97654.38;;;11.14;100.00
45939;BME280;31650;48.818;9.116;2023-04-29T02:08:08;97662.47;;;10.72;100.00
45939;BME280;31650;48.818;9.116;2023-04-29T02:23:08;97666.13;;;10.77;100.00
45939;BME280;31650;48.818;9.116;2023-04-29T02:38:09;97660.69;;;10.65;100.00
45939;BME280;31650;48.818;9.116;2023-04-29T02:53:09;97659.47;;;10.43;100.00
45939;BME280;31650;48.818;9.116;2023-04-29T03:08:09;97677.81;;;10.04;100.00
45939;BME280;31650;48.818;9.116;2023-04-29T03:23:10;97679.09;;;9.26;100.00
45939;BME280;31650;48.818;9.116;2023-04-29T03:38:10;97673.84;;;9.00;100.00
45939;BME280;31650;48.818;9.116;2023-04-29T03:53:10;97678.25;;;8.42;100.00
45939;BME280;31650;48.818;9.116;2023-04-29T04:08:11;97682.84;;;8.28;100.00
45939;BME280;31650;48.818;9.116;2023-04-29T04:23:12;97706.38;;;8.41;100.00
45939;BME280;31650;48.818;9.116;2023-04-29T04:38:12;97714.97;;;8.90;100.00
45939;BME280;31650;48.818;9.116;2023-04-29T04:53:12;97731.03;;;9.23;100.00
45939;BME280;31650;48.818;9.116;2023-04-29T05:08:12;97753.13;;;9.90;100.00
45939;BME280;31650;48.818;9.116;2023-04-29T05:23:13;97772.19;;;10.59;100.00
45939;BME280;31650;48.818;9.116;2023-04-29T05:38:13;97786.34;;;11.35;100.00
45939;BME280;31650;48.818;9.116;2023-04-29T05:53:13;97794.84;;;11.87;100.00
45939;BME280;31650;48.818;9.116;2023-04-29T06:08:13;97822.25;;;12.04;100.00
45939;BME280;31650;48.818;9.116;2023-04-29T06:23:13;97850.38;;;12.16;100.00
45939;BME280;31650;48.818;9.116;2023-04-29T06:38:14;97862.53;;;12.44;100.00
45939;BME280;31650;48.818;9.116;2023-04-29T06:53:14;97863.47;;;13.32;100.00
45939;BME280;31650;48.818;9.116;2023-04-29T07:08:14;97845.66;;;13.98;100.00
45939;BME280;31650;48.818;9.116;2023-04-29T07:23:14;97886.09;;;13.56;100.00
45939;BME280;31650;48.818;9.116;2023-04-29T07:38:15;97876.69;;;13.92;100.00
45939;BME280;31650;48.818;9.116;2023-04-29T07:53:15;97882.94;;;14.04;100.00
45939;BME280;31650;48.818;9.116;2023-04-29T08:08:16;97902.69;;;13.95;100.00
45939;BME280;31650;48.818;9.116;2023-04-29T08:23:16;97917.41;;;14.05;100.00
45939;BME280;31650;48.818;9.116;2023-04-29T08:38:17;97937.13;;;13.67;100.00
45939;BME280;31650;48.818;9.116;2023-04-29T08:53:18;97939.81;;;13.91;100.00
45939;BME280;31650;48.818;9.116;2023-04-29T09:08:18;97927.81;;;15.00;100.00
45939;BME280;31650;48.818;9.116;2023-04-29T09:23:20;97921.63;;;15.43;94.84
45939;BME280;31650;48.818;9.116;2023-04-29T09:38:35;97945.66;;;15.58;90.24
45939;BME280;31650;48.818;9.116;2023-04-29T09:53:35;97951.38;;;15.01;89.70
45939;BME280;31650;48.818;9.116;2023-04-29T10:08:37;97940.25;;;16.56;77.88
45939;BME280;31650;48.818;9.116;2023-04-29T10:23:40;97944.13;;;15.28;78.76
45939;BME280;31650;48.818;9.116;2023-04-29T10:38:43;97923.97;;;16.23;80.10
45939;BME280;31650;48.818;9.116;2023-04-29T10:53:56;97921.38;;;16.92;72.30
45939;BME280;31650;48.818;9.116;2023-04-29T11:09:00;97909.03;;;16.95;73.05
45939;BME280;31650;48.818;9.116;2023-04-29T11:24:03;97908.31;;;16.18;71.10
45939;BME280;31650;48.818;9.116;2023-04-29T11:39:05;97922.22;;;16.11;73.80
45939;BME280;31650;48.818;9.116;2023-04-29T11:54:06;97923.00;;;15.85;80.21
45939;BME280;31650;48.818;9.116;2023-04-29T12:09:06;97924.09;;;17.24;74.76
45939;BME280;31650;48.818;9.116;2023-04-29T12:24:07;97929.56;;;16.33;75.94
45939;BME280;31650;48.818;9.116;2023-04-29T12:39:09;97945.31;;;16.15;79.71
45939;BME280;31650;48.818;9.116;2023-04-29T12:54:11;97956.50;;;16.63;73.26
45939;BME280;31650;48.818;9.116;2023-04-29T13:09:11;97955.00;;;15.79;77.81
45939;BME280;31650;48.818;9.116;2023-04-29T13:24:12;97970.34;;;15.41;77.70
45939;BME280;31650;48.818;9.116;2023-04-29T13:39:12;97968.75;;;15.45;78.57
45939;BME280;31650;48.818;9.116;2023-04-29T13:54:13;97979.91;;;16.71;75.39
45939;BME280;31650;48.818;9.116;2023-04-29T14:09:13;97989.00;;;15.61;74.90
45939;BME280;31650;48.818;9.116;2023-04-29T14:24:13;97976.56;;;15.37;75.77
45939;BME280;31650;48.818;9.116;2023-04-29T14:39:13;97991.28;;;14.97;76.91
45939;BME280;31650;48.818;9.116;2023-04-29T14:54:14;98012.91;;;14.81;74.98
45939;BME280;31650;48.818;9.116;2023-04-29T15:09:15;98013.59;;;15.22;77.62
45939;BME280;31650;48.818;9.116;2023-04-29T15:24:15;98037.59;;;13.89;84.68
45939;BME280;31650;48.818;9.116;2023-04-29T15:39:16;98053.69;;;14.14;84.12
45939;BME280;31650;48.818;9.116;2023-04-29T15:54:16;98068.34;;;13.84;84.59
45939;BME280;31650;48.818;9.116;2023-04-29T16:09:16;98072.28;;;13.88;84.77
45939;BME280;31650;48.818;9.116;2023-04-29T16:24:17;98071.69;;;13.86;87.51
45939;BME280;31650;48.818;9.116;2023-04-29T16:39:17;98082.13;;;13.54;86.81
45939;BME280;31650;48.818;9.116;2023-04-29T16:54:18;98085.69;;;13.31;87.10
45939;BME280;31650;48.818;9.116;2023-04-29T17:09:18;98096.63;;;13.12;86.72
45939;BME280;31650;48.818;9.116;2023-04-29T17:24:18;98101.41;;;12.87;90.64
45939;BME280;31650;48.818;9.116;2023-04-29T17:39:18;98104.28;;;12.62;95.10
45939;BME280;31650;48.818;9.116;2023-04-29T17:54:21;98105.66;;;12.52;95.64
45939;BME280;31650;48.818;9.116;2023-04-29T18:09:25;98114.97;;;12.63;99.88
45939;BME280;31650;48.818;9.116;2023-04-29T18:24:25;98130.59;;;12.38;100.00
45939;BME280;31650;48.818;9.116;2023-04-29T18:39:27;98136.28;;;11.74;100.00
45939;BME280;31650;48.818;9.116;2023-04-29T18:54:30;98154.88;;;10.95;100.00
45939;BME280;31650;48.818;9.116;2023-04-29T19:09:31;98171.75;;;10.65;100.00
45939;BME280;31650;48.818;9.116;2023-04-29T19:24:31;98195.53;;;9.98;100.00
45939;BME280;31650;48.818;9.116;2023-04-29T19:39:31;98212.66;;;9.86;100.00
45939;BME280;31650;48.818;9.116;2023-04-29T19:54:32;98210.78;;;9.73;100.00
45939;BME280;31650;48.818;9.116;2023-04-29T20:09:36;98221.63;;;9.66;100.00
45939;BME280;31650;48.818;9.116;2023-04-29T20:24:36;98225.81;;;9.75;100.00
45939;BME280;31650;48.818;9.116;2023-04-29T20:39:36;98225.13;;;10.27;100.00
45939;BME280;31650;48.818;9.116;2023-04-29T20:54:38;98239.56;;;10.40;100.00
45939;BME280;31650;48.818;9.116;2023-04-29T21:09:38;98245.44;;;10.44;100.00
45939;BME280;31650;48.818;9.116;2023-04-29T21:24:38;98239.75;;;10.59;100.00
45939;BME280;31650;48.818;9.116;2023-04-29T21:39:39;98230.72;;;10.65;100.00
45939;BME280;31650;48.818;9.116;2023-04-29T21:54:39;98240.59;;;10.53;100.00
45939;BME280;31650;48.818;9.116;2023-04-29T22:09:39;98253.72;;;10.62;100.00
45939;BME280;31650;48.818;9.116;2023-04-29T22:24:40;98256.06;;;10.45;100.00
45939;BME280;31650;48.818;9.116;2023-04-29T22:39:40;98274.72;;;10.29;100.00
45939;BME280;31650;48.818;9.116;2023-04-29T22:54:40;98271.75;;;10.23;100.00
45939;BME280;31650;48.818;9.116;2023-04-29T23:09:40;98266.56;;;10.15;100.00
45939;BME280;31650;48.818;9.116;2023-04-29T23:24:41;98273.44;;;10.11;100.00
45939;BME280;31650;48.818;9.116;2023-04-29T23:39:41;98286.38;;;10.02;100.00
45939;BME280;31650;48.818;9.116;2023-04-29T23:54:41;98294.13;;;10.12;100.00
